createdAt,value
2018-09-20T00:01:13.210Z,16.90
2018-09-20T00:03:41.665Z,16.90
2018-09-20T00:06:10.088Z,16.87
2018-09-20T00:08:38.524Z,16.82
2018-09-20T00:11:07.165Z,16.82
2018-09-20T00:13:35.657Z,16.71
2018-09-20T00:16:04.105Z,16.65
2018-09-20T00:18:32.593Z,16.49
2018-09-20T00:21:00.994Z,16.43
2018-09-20T00:23:29.423Z,16.36
2018-09-20T00:25:57.882Z,16.35
2018-09-20T00:28:26.306Z,16.31
2018-09-20T00:30:54.721Z,16.34
2018-09-20T00:33:23.165Z,16.30
2018-09-20T00:35:51.686Z,16.33
2018-09-20T00:38:20.175Z,16.22
2018-09-20T00:40:48.627Z,16.19
2018-09-20T00:43:17.057Z,16.18
2018-09-20T00:45:45.478Z,16.21
2018-09-20T00:48:13.881Z,16.15
2018-09-20T00:50:42.298Z,16.16
2018-09-20T00:53:10.728Z,16.17
2018-09-20T00:55:39.176Z,16.16
2018-09-20T00:58:07.586Z,16.10
2018-09-20T01:00:36.036Z,16.05
2018-09-20T01:03:04.447Z,16.02
2018-09-20T01:05:32.878Z,15.96
2018-09-20T01:08:01.307Z,16.00
2018-09-20T01:10:29.741Z,16.08
2018-09-20T01:12:58.162Z,16.11
2018-09-20T01:15:26.602Z,16.04
2018-09-20T01:17:55.071Z,16.01
2018-09-20T01:20:23.555Z,16.03
2018-09-20T01:22:51.989Z,16.03
2018-09-20T01:25:20.401Z,16.03
2018-09-20T01:27:48.890Z,15.96
2018-09-20T01:30:17.314Z,15.84
2018-09-20T01:32:45.759Z,15.78
2018-09-20T01:35:14.208Z,15.63
2018-09-20T01:37:42.689Z,15.55
2018-09-20T01:40:11.084Z,15.48
2018-09-20T01:42:39.472Z,15.37
2018-09-20T01:45:07.962Z,15.29
2018-09-20T01:47:36.368Z,15.21
2018-09-20T01:50:05.147Z,15.19
2018-09-20T01:52:33.538Z,15.16
2018-09-20T01:55:01.958Z,15.14
2018-09-20T01:57:30.362Z,15.13
2018-09-20T01:59:58.841Z,15.08
2018-09-20T02:02:27.259Z,15.01
2018-09-20T02:04:56.857Z,14.93
2018-09-20T02:07:25.290Z,14.91
2018-09-20T02:09:53.713Z,14.85
2018-09-20T02:12:22.145Z,14.87
2018-09-20T02:14:50.554Z,14.88
2018-09-20T02:17:18.951Z,14.92
2018-09-20T02:19:48.359Z,14.97
2018-09-20T02:22:16.747Z,15.01
2018-09-20T02:24:45.192Z,15.05
2018-09-20T02:27:13.592Z,15.11
2018-09-20T02:29:41.998Z,15.10
2018-09-20T02:32:10.413Z,15.04
2018-09-20T02:34:38.850Z,15.03
2018-09-20T02:37:07.257Z,15.01
2018-09-20T02:39:35.682Z,14.93
2018-09-20T02:42:04.114Z,15.00
2018-09-20T02:44:32.541Z,15.02
2018-09-20T02:47:00.974Z,15.04
2018-09-20T02:49:29.379Z,15.07
2018-09-20T02:51:57.930Z,15.08
2018-09-20T02:54:26.446Z,15.10
2018-09-20T02:56:55.013Z,15.17
2018-09-20T02:59:23.515Z,15.21
2018-09-20T03:01:52.038Z,15.39
2018-09-20T03:04:20.560Z,15.36
2018-09-20T03:06:49.175Z,15.43
2018-09-20T03:09:17.668Z,15.47
2018-09-20T03:11:46.241Z,15.51
2018-09-20T03:14:14.787Z,15.52
2018-09-20T03:16:43.398Z,15.56
2018-09-20T03:19:11.931Z,15.59
2018-09-20T03:21:40.494Z,15.64
2018-09-20T03:24:09.061Z,15.77
2018-09-20T03:26:37.660Z,15.71
2018-09-20T03:29:06.301Z,15.76
2018-09-20T03:31:34.833Z,15.73
2018-09-20T03:34:05.497Z,15.68
2018-09-20T03:36:33.904Z,15.62
2018-09-20T03:39:02.338Z,15.69
2018-09-20T03:41:30.772Z,15.61
2018-09-20T03:43:59.191Z,15.55
2018-09-20T03:46:30.926Z,15.51
2018-09-20T03:48:59.530Z,15.45
2018-09-20T03:51:28.073Z,15.41
2018-09-20T03:53:56.610Z,15.38
2018-09-20T03:56:25.190Z,15.37
2018-09-20T03:58:53.763Z,15.34
2018-09-20T04:01:22.351Z,15.35
2018-09-20T04:03:50.981Z,15.28
2018-09-20T04:06:19.877Z,14.90
2018-09-20T04:08:48.528Z,14.66
2018-09-20T04:11:17.062Z,14.59
2018-09-20T04:13:45.702Z,14.47
2018-09-20T04:16:14.085Z,14.39
2018-09-20T04:18:42.541Z,14.34
2018-09-20T04:21:11.184Z,14.27
2018-09-20T04:23:39.852Z,14.26
2018-09-20T04:26:08.423Z,14.26
2018-09-20T04:28:37.105Z,14.29
2018-09-20T04:31:05.676Z,14.35
2018-09-20T04:33:34.214Z,14.39
2018-09-20T04:36:02.814Z,14.49
2018-09-20T04:38:31.362Z,14.49
2018-09-20T04:41:00.027Z,14.49
2018-09-20T04:43:28.630Z,14.49
2018-09-20T04:45:57.214Z,14.36
2018-09-20T04:48:25.820Z,14.22
2018-09-20T04:50:54.409Z,14.14
2018-09-20T04:53:23.009Z,14.14
2018-09-20T04:55:51.587Z,14.16
2018-09-20T04:58:20.173Z,14.20
2018-09-20T05:00:48.810Z,14.13
2018-09-20T05:03:17.438Z,14.09
2018-09-20T05:05:46.170Z,13.95
2018-09-20T05:08:14.895Z,13.88
2018-09-20T05:10:43.513Z,13.88
2018-09-20T05:13:12.153Z,13.88
2018-09-20T05:15:40.723Z,13.86
2018-09-20T05:18:09.365Z,13.87
2018-09-20T05:20:38.052Z,13.90
2018-09-20T05:23:06.711Z,13.93
2018-09-20T05:25:35.313Z,13.94
2018-09-20T05:28:03.919Z,13.97
2018-09-20T05:30:32.538Z,14.01
2018-09-20T05:33:01.122Z,13.98
2018-09-20T05:35:29.857Z,14.02
2018-09-20T05:37:58.465Z,14.00
2018-09-20T05:40:27.147Z,14.04
2018-09-20T05:42:55.856Z,14.10
2018-09-20T05:45:24.450Z,14.17
2018-09-20T05:47:52.966Z,14.14
2018-09-20T05:50:23.574Z,14.15
2018-09-20T05:52:52.124Z,14.16
2018-09-20T05:55:20.633Z,14.30
2018-09-20T05:57:49.250Z,14.44
2018-09-20T06:00:17.854Z,14.61
2018-09-20T06:02:46.506Z,14.72
2018-09-20T06:05:15.055Z,14.85
2018-09-20T06:07:43.747Z,14.96
2018-09-20T06:10:12.301Z,15.14
2018-09-20T06:12:40.946Z,15.35
2018-09-20T06:15:09.433Z,15.55
2018-09-20T06:17:37.961Z,15.84
2018-09-20T06:20:06.476Z,16.28
2018-09-20T06:22:34.898Z,16.54
2018-09-20T06:25:03.309Z,16.75
2018-09-20T06:27:31.762Z,17.02
2018-09-20T06:30:00.219Z,17.20
2018-09-20T06:32:28.797Z,17.36
2018-09-20T06:34:57.297Z,17.57
2018-09-20T06:37:25.669Z,17.73
2018-09-20T06:39:54.157Z,17.81
2018-09-20T06:42:22.611Z,18.03
2018-09-20T06:44:50.990Z,18.19
2018-09-20T06:47:19.429Z,18.33
2018-09-20T06:49:47.882Z,18.55
2018-09-20T06:52:16.374Z,18.71
2018-09-20T06:54:44.816Z,18.90
2018-09-20T06:57:13.221Z,19.08
2018-09-20T06:59:41.815Z,19.19
2018-09-20T07:02:11.233Z,19.45
2018-09-20T07:04:39.635Z,19.77
2018-09-20T07:07:08.119Z,20.02
2018-09-20T07:09:36.536Z,20.12
2018-09-20T07:12:04.989Z,20.14
2018-09-20T07:14:33.423Z,20.24
2018-09-20T07:17:02.109Z,20.34
2018-09-20T07:19:30.558Z,20.46
2018-09-20T07:21:59.000Z,20.56
2018-09-20T07:24:27.442Z,20.78
2018-09-20T07:26:55.820Z,20.84
2018-09-20T07:29:24.381Z,20.92
2018-09-20T07:31:52.789Z,21.04
2018-09-20T07:34:21.197Z,21.08
2018-09-20T07:36:49.657Z,21.21
2018-09-20T07:39:18.133Z,21.22
2018-09-20T07:41:46.527Z,21.34
2018-09-20T07:44:14.926Z,21.43
2018-09-20T07:46:43.313Z,21.51
2018-09-20T07:49:11.705Z,21.59
2018-09-20T07:51:40.113Z,21.61
2018-09-20T07:54:08.527Z,21.66
2018-09-20T07:56:36.965Z,21.76
2018-09-20T07:59:05.385Z,21.82
2018-09-20T08:04:01.190Z,21.96
2018-09-20T08:06:29.690Z,21.94
2018-09-20T08:08:58.214Z,22.05
2018-09-20T08:11:26.718Z,22.21
2018-09-20T08:13:55.139Z,22.24
2018-09-20T08:16:23.533Z,22.23
2018-09-20T08:18:52.005Z,22.10
2018-09-20T08:21:20.439Z,22.19
2018-09-20T08:23:48.911Z,22.15
2018-09-20T08:26:17.317Z,22.03
2018-09-20T08:28:45.911Z,22.11
2018-09-20T08:31:14.355Z,22.24
2018-09-20T08:33:42.774Z,22.33
2018-09-20T08:36:11.190Z,22.30
2018-09-20T08:38:39.620Z,22.36
2018-09-20T08:41:08.174Z,22.39
2018-09-20T08:43:37.712Z,22.37
2018-09-20T08:46:06.110Z,22.43
2018-09-20T08:48:34.542Z,22.41
2018-09-20T08:51:03.007Z,22.43
2018-09-20T08:53:31.458Z,22.51
2018-09-20T08:55:59.966Z,22.51
2018-09-20T08:58:31.923Z,22.45
2018-09-20T09:01:01.406Z,22.51
2018-09-20T09:03:29.983Z,22.71
2018-09-20T09:05:58.513Z,22.93
2018-09-20T09:08:26.995Z,23.19
2018-09-20T09:10:55.453Z,23.47
2018-09-20T09:13:23.915Z,23.55
2018-09-20T09:15:52.325Z,23.64
2018-09-20T09:18:20.762Z,23.59
2018-09-20T09:20:49.305Z,23.67
2018-09-20T09:23:17.737Z,23.61
2018-09-20T09:25:46.149Z,23.42
2018-09-20T09:28:14.726Z,23.49
2018-09-20T09:30:43.122Z,23.66
2018-09-20T09:33:11.489Z,23.71
2018-09-20T09:35:39.938Z,23.97
2018-09-20T09:38:08.386Z,24.20
2018-09-20T09:40:36.923Z,24.08
2018-09-20T09:43:05.346Z,24.33
2018-09-20T09:45:33.828Z,24.43
2018-09-20T09:48:02.307Z,24.56
2018-09-20T09:50:30.673Z,24.45
2018-09-20T09:52:59.104Z,24.43
2018-09-20T09:55:27.513Z,24.43
2018-09-20T09:57:55.925Z,24.32
2018-09-20T10:00:29.629Z,24.24
2018-09-20T10:02:58.849Z,24.35
2018-09-20T10:05:27.337Z,24.45
2018-09-20T10:07:56.233Z,24.61
2018-09-20T10:10:24.692Z,24.74
2018-09-20T10:12:53.114Z,24.74
2018-09-20T10:15:21.575Z,24.76
2018-09-20T10:17:49.995Z,24.78
2018-09-20T10:20:19.186Z,24.71
2018-09-20T10:22:47.602Z,24.64
2018-09-20T10:25:16.029Z,24.59
2018-09-20T10:27:44.477Z,24.60
2018-09-20T10:30:12.897Z,24.78
2018-09-20T10:32:41.390Z,24.91
2018-09-20T10:35:09.853Z,24.71
2018-09-20T10:37:38.726Z,24.89
2018-09-20T10:40:07.264Z,24.89
2018-09-20T10:42:35.657Z,24.96
2018-09-20T10:45:04.166Z,25.12
2018-09-20T10:47:32.560Z,25.18
2018-09-20T10:50:01.031Z,25.40
2018-09-20T10:52:29.421Z,25.19
2018-09-20T10:54:57.889Z,25.26
2018-09-20T10:57:26.317Z,25.14
2018-09-20T10:59:54.746Z,24.82
2018-09-20T11:02:23.166Z,24.91
2018-09-20T11:04:51.646Z,25.20
2018-09-20T11:07:20.200Z,25.41
2018-09-20T11:09:48.741Z,25.53
2018-09-20T11:12:17.248Z,25.50
2018-09-20T11:14:45.701Z,25.14
2018-09-20T11:17:14.493Z,25.16
2018-09-20T11:19:43.869Z,25.38
2018-09-20T11:22:12.447Z,25.51
2018-09-20T11:24:40.895Z,25.76
2018-09-20T11:27:09.350Z,25.97
2018-09-20T11:29:37.769Z,25.90
2018-09-20T11:32:06.195Z,25.65
2018-09-20T11:34:34.854Z,25.87
2018-09-20T11:37:03.284Z,25.86
2018-09-20T11:39:31.887Z,25.81
2018-09-20T11:42:06.737Z,25.89
2018-09-20T11:44:35.182Z,25.87
2018-09-20T11:47:03.606Z,25.76
2018-09-20T11:49:32.065Z,25.79
2018-09-20T11:52:00.486Z,25.80
2018-09-20T11:54:29.354Z,26.05
2018-09-20T11:56:58.306Z,26.13
2018-09-20T11:59:26.790Z,26.22
2018-09-20T12:01:55.289Z,26.36
2018-09-20T12:04:23.850Z,26.29
2018-09-20T12:06:52.351Z,26.45
2018-09-20T12:09:20.805Z,26.77
2018-09-20T12:11:49.231Z,26.92
2018-09-20T12:14:17.679Z,26.87
2018-09-20T12:16:46.097Z,27.01
2018-09-20T12:19:14.682Z,26.95
2018-09-20T12:21:43.110Z,26.92
2018-09-20T12:24:11.539Z,27.09
2018-09-20T12:26:39.994Z,27.02
2018-09-20T12:29:09.390Z,27.33
2018-09-20T12:31:37.919Z,27.45
2018-09-20T12:34:06.381Z,27.46
2018-09-20T12:36:34.824Z,27.46
2018-09-20T12:39:04.764Z,27.56
2018-09-20T12:41:33.177Z,27.75
2018-09-20T12:44:01.666Z,27.72
2018-09-20T12:46:30.110Z,27.83
2018-09-20T12:48:58.492Z,27.91
2018-09-20T12:51:26.917Z,28.12
2018-09-20T12:53:55.366Z,28.26
2018-09-20T12:56:23.801Z,27.80
2018-09-20T12:58:52.542Z,28.06
2018-09-20T13:01:22.080Z,28.53
2018-09-20T13:03:51.144Z,28.54
2018-09-20T13:06:19.729Z,28.51
2018-09-20T13:08:48.141Z,28.92
2018-09-20T13:11:16.633Z,28.86
2018-09-20T13:13:45.034Z,29.12
2018-09-20T13:16:13.477Z,29.04
2018-09-20T13:18:41.866Z,29.21
2018-09-20T13:21:10.699Z,29.42
2018-09-20T13:23:39.169Z,30.31
2018-09-20T13:26:07.781Z,31.28
2018-09-20T13:28:36.185Z,31.64
2018-09-20T13:31:04.641Z,31.95
2018-09-20T13:33:33.078Z,32.69
2018-09-20T13:36:01.564Z,33.02
2018-09-20T13:38:29.986Z,32.84
2018-09-20T13:40:58.466Z,32.35
2018-09-20T13:43:27.004Z,32.87
2018-09-20T13:45:55.453Z,32.76
2018-09-20T13:48:24.066Z,32.32
2018-09-20T13:50:52.608Z,31.72
2018-09-20T13:53:21.073Z,31.56
2018-09-20T13:55:49.506Z,31.80
2018-09-20T13:58:17.985Z,31.92
2018-09-20T14:00:46.481Z,31.97
2018-09-20T14:03:15.925Z,32.23
2018-09-20T14:05:44.324Z,32.15
2018-09-20T14:08:12.778Z,30.81
2018-09-20T14:10:41.206Z,31.19
2018-09-20T14:13:09.685Z,31.95
2018-09-20T14:15:38.141Z,32.62
2018-09-20T14:18:06.519Z,33.53
2018-09-20T14:20:34.989Z,33.34
2018-09-20T14:23:03.450Z,34.32
2018-09-20T14:25:31.854Z,34.29
2018-09-20T14:28:00.287Z,34.03
2018-09-20T14:30:28.666Z,34.07
2018-09-20T14:32:57.116Z,34.55
2018-09-20T14:35:25.603Z,32.79
2018-09-20T14:37:54.074Z,32.60
2018-09-20T14:40:22.489Z,32.44
2018-09-20T14:42:50.958Z,32.79
2018-09-20T14:45:19.474Z,32.65
2018-09-20T14:47:47.879Z,32.58
2018-09-20T14:50:16.278Z,33.50
2018-09-20T14:52:44.739Z,32.74
2018-09-20T14:55:13.169Z,33.00
2018-09-20T14:57:41.557Z,33.60
2018-09-20T15:00:10.017Z,33.51
2018-09-20T15:02:38.441Z,34.00
2018-09-20T15:05:07.098Z,33.02
2018-09-20T15:07:35.557Z,32.73
2018-09-20T15:10:04.041Z,32.36
2018-09-20T15:12:32.538Z,32.08
2018-09-20T15:15:00.956Z,32.10
2018-09-20T15:17:29.354Z,31.77
2018-09-20T15:19:57.818Z,31.61
2018-09-20T15:22:26.283Z,31.50
2018-09-20T15:24:54.694Z,31.91
2018-09-20T15:27:23.131Z,31.36
2018-09-20T15:29:51.549Z,31.25
2018-09-20T15:32:19.993Z,31.74
2018-09-20T15:34:48.373Z,31.76
2018-09-20T15:37:16.829Z,31.41
2018-09-20T15:39:45.238Z,31.88
2018-09-20T15:42:13.645Z,31.97
2018-09-20T15:44:42.084Z,32.44
2018-09-20T15:47:10.510Z,32.29
2018-09-20T15:49:38.922Z,31.85
2018-09-20T15:52:07.328Z,32.03
2018-09-20T15:54:35.841Z,31.93
2018-09-20T15:57:04.380Z,31.31
2018-09-20T15:59:32.784Z,31.21
2018-09-20T16:02:01.149Z,31.11
2018-09-20T16:04:29.593Z,30.98
2018-09-20T16:06:58.065Z,30.60
2018-09-20T16:09:26.450Z,29.83
2018-09-20T16:11:54.880Z,29.32
2018-09-20T16:14:23.350Z,29.22
2018-09-20T16:16:51.755Z,28.96
2018-09-20T16:19:20.190Z,29.27
2018-09-20T16:21:48.557Z,29.07
2018-09-20T16:24:16.992Z,28.67
2018-09-20T16:26:45.408Z,28.48
2018-09-20T16:29:23.148Z,28.28
2018-09-20T16:34:03.607Z,28.32
2018-09-20T16:36:39.690Z,27.85
2018-09-20T16:39:12.554Z,27.43
2018-09-20T16:41:42.311Z,27.33
2018-09-20T16:44:11.055Z,27.07
2018-09-20T16:46:39.498Z,26.80
2018-09-20T16:49:07.957Z,26.50
2018-09-20T16:51:36.333Z,26.60
2018-09-20T16:54:04.738Z,26.53
2018-09-20T16:56:33.202Z,26.42
2018-09-20T16:59:01.681Z,26.34
2018-09-20T17:01:30.155Z,26.22
2018-09-20T17:03:58.612Z,26.07
2018-09-20T17:06:27.061Z,26.00
2018-09-20T17:08:55.501Z,25.84
2018-09-20T17:11:23.890Z,25.71
2018-09-20T17:13:52.349Z,25.64
2018-09-20T17:16:20.850Z,25.40
2018-09-20T17:18:49.221Z,25.43
2018-09-20T17:21:17.663Z,25.39
2018-09-20T17:23:46.129Z,25.14
2018-09-20T17:26:14.618Z,25.07
2018-09-20T17:28:43.078Z,24.95
2018-09-20T17:31:11.482Z,24.81
2018-09-20T17:33:39.923Z,24.69
2018-09-20T17:36:08.509Z,24.60
2018-09-20T17:38:37.442Z,24.32
2018-09-20T17:41:08.938Z,24.02
2018-09-20T17:43:43.858Z,23.68
2018-09-20T17:46:12.337Z,23.55
2018-09-20T17:48:40.853Z,23.36
2018-09-20T17:51:10.241Z,23.19
2018-09-20T17:53:38.932Z,22.93
2018-09-20T17:56:07.981Z,22.98
2018-09-20T17:58:37.338Z,22.98
2018-09-20T18:01:05.782Z,22.82
2018-09-20T18:03:34.226Z,22.87
2018-09-20T18:06:02.744Z,22.95
2018-09-20T18:08:31.206Z,22.99
2018-09-20T18:10:59.654Z,22.76
2018-09-20T18:13:28.089Z,22.49
2018-09-20T18:15:56.499Z,22.36
2018-09-20T18:18:25.009Z,22.23
2018-09-20T18:20:53.352Z,22.42
2018-09-20T18:23:21.793Z,22.47
2018-09-20T18:25:50.253Z,22.27
2018-09-20T18:28:18.852Z,22.17
2018-09-20T18:30:47.276Z,22.09
2018-09-20T18:33:15.685Z,21.95
2018-09-20T18:35:44.194Z,21.81
2018-09-20T18:38:12.770Z,21.74
2018-09-20T18:40:41.195Z,21.71
2018-09-20T18:43:09.611Z,21.66
2018-09-20T18:45:38.045Z,21.56
2018-09-20T18:48:06.481Z,21.47
2018-09-20T18:50:34.918Z,21.51
2018-09-20T18:53:03.333Z,21.49
2018-09-20T18:55:32.856Z,21.44
2018-09-20T18:58:01.293Z,21.42
2018-09-20T19:00:29.719Z,21.41
2018-09-20T19:02:59.180Z,21.47
2018-09-20T19:05:27.615Z,21.41
2018-09-20T19:07:56.062Z,21.54
2018-09-20T19:10:24.517Z,21.65
2018-09-20T19:13:22.615Z,21.63
2018-09-20T19:15:51.035Z,21.56
2018-09-20T19:18:19.436Z,21.59
2018-09-20T19:20:47.966Z,21.53
2018-09-20T19:23:16.355Z,21.41
2018-09-20T19:25:44.856Z,21.26
2018-09-20T19:28:13.258Z,21.18
2018-09-20T19:30:41.669Z,21.18
2018-09-20T19:33:10.077Z,21.10
2018-09-20T19:35:38.533Z,21.37
2018-09-20T19:38:06.937Z,21.41
2018-09-20T19:40:35.443Z,21.35
2018-09-20T19:43:03.908Z,21.31
2018-09-20T19:45:32.395Z,21.47
2018-09-20T19:48:00.839Z,21.60
2018-09-20T19:50:29.309Z,21.54
2018-09-20T19:52:57.761Z,21.39
2018-09-20T19:55:26.183Z,21.39
2018-09-20T19:57:54.602Z,21.40
2018-09-20T20:00:23.108Z,21.40
2018-09-20T20:02:51.461Z,21.36
2018-09-20T20:05:19.950Z,21.44
2018-09-20T20:07:48.390Z,21.40
2018-09-20T20:10:16.806Z,21.49
2018-09-20T20:12:45.261Z,21.38
2018-09-20T20:15:13.739Z,21.42
2018-09-20T20:17:42.249Z,21.32
2018-09-20T20:20:10.706Z,21.35
2018-09-20T20:22:39.117Z,21.44
2018-09-20T20:25:07.554Z,21.36
2018-09-20T20:27:39.142Z,21.39
2018-09-20T20:30:07.592Z,21.36
2018-09-20T20:32:36.057Z,21.28
2018-09-20T20:35:04.441Z,21.14
2018-09-20T20:37:32.897Z,21.13
2018-09-20T20:40:01.375Z,21.06
2018-09-20T20:42:29.823Z,20.95
2018-09-20T20:44:58.274Z,20.95
2018-09-20T20:47:26.709Z,20.89
2018-09-20T20:49:55.334Z,20.82
2018-09-20T20:52:23.765Z,20.75
2018-09-20T20:54:52.182Z,20.75
2018-09-20T20:57:20.629Z,20.72
2018-09-20T20:59:49.079Z,20.66
2018-09-20T21:02:17.525Z,20.63
2018-09-20T21:04:46.119Z,20.60
2018-09-20T21:07:14.558Z,20.53
2018-09-20T21:09:43.142Z,20.45
2018-09-20T21:12:11.586Z,20.43
2018-09-20T21:14:40.051Z,20.39
2018-09-20T21:17:08.457Z,20.27
2018-09-20T21:19:36.880Z,20.21
2018-09-20T21:22:05.361Z,20.12
2018-09-20T21:24:34.675Z,20.00
2018-09-20T21:27:03.212Z,19.93
2018-09-20T21:29:31.660Z,19.94
2018-09-20T21:32:00.069Z,19.85
2018-09-20T21:34:28.458Z,19.85
2018-09-20T21:36:56.909Z,19.87
2018-09-20T21:39:25.314Z,19.96
2018-09-20T21:41:53.752Z,19.93
2018-09-20T21:44:22.225Z,19.85
2018-09-20T21:46:55.788Z,19.80
2018-09-20T21:49:24.316Z,19.77
2018-09-20T21:51:52.718Z,19.71
2018-09-20T21:54:21.085Z,19.63
2018-09-20T21:56:49.529Z,19.61
2018-09-20T21:59:18.066Z,19.56
2018-09-20T22:01:51.734Z,19.56
2018-09-20T22:04:20.125Z,19.46
2018-09-20T22:06:48.611Z,19.42
2018-09-20T22:09:17.036Z,19.32
2018-09-20T22:11:45.448Z,19.22
2018-09-20T22:14:13.841Z,19.08
2018-09-20T22:16:42.245Z,19.02
2018-09-20T22:19:10.689Z,18.91
2018-09-20T22:21:39.133Z,18.91
2018-09-20T22:24:07.538Z,18.96
2018-09-20T22:26:36.090Z,18.98
2018-09-20T22:29:04.578Z,18.94
2018-09-20T22:31:33.053Z,18.93
2018-09-20T22:34:01.597Z,18.89
2018-09-20T22:36:30.017Z,18.88
2018-09-20T22:38:58.473Z,18.92
2018-09-20T22:41:26.913Z,18.93
2018-09-20T22:43:55.292Z,18.89
2018-09-20T22:46:23.724Z,18.85
2018-09-20T22:48:52.116Z,18.81
2018-09-20T22:51:20.557Z,18.83
2018-09-20T22:53:49.075Z,18.80
2018-09-20T22:56:17.936Z,18.78
2018-09-20T22:58:46.342Z,18.72
2018-09-20T23:01:16.932Z,18.66
2018-09-20T23:03:45.885Z,18.63
2018-09-20T23:06:14.330Z,18.68
2018-09-20T23:08:42.825Z,18.69
2018-09-20T23:11:11.266Z,18.82
2018-09-20T23:13:39.705Z,18.92
2018-09-20T23:16:08.137Z,19.01
2018-09-20T23:18:36.551Z,19.24
2018-09-20T23:21:05.078Z,19.44
2018-09-20T23:23:33.500Z,19.61
2018-09-20T23:26:01.909Z,19.75
2018-09-20T23:28:30.334Z,19.84
2018-09-20T23:30:58.813Z,19.96
2018-09-20T23:33:27.343Z,20.02
2018-09-20T23:35:55.790Z,20.17
2018-09-20T23:38:24.250Z,20.28
2018-09-20T23:40:52.657Z,20.36
2018-09-20T23:43:21.118Z,20.30
2018-09-20T23:45:50.573Z,20.31
2018-09-20T23:48:19.047Z,20.31
2018-09-20T23:50:47.590Z,20.23
2018-09-20T23:53:16.026Z,20.24
2018-09-20T23:55:44.866Z,20.32
2018-09-20T23:58:13.336Z,20.31
